< < Back
Terminal Aerodrome Forecast


Current Version              Previous Versions:   1  2  3  4  5  6  7  8  9  

Terminal Aerodrome Forecast

739
FTUS44 KBMX 282320
TAFBHM
TAF
KBHM 282320Z 2900/2924 13005KT P6SM SCT100 BKN200
     FM290200 11003KT P6SM SCT250
     FM291500 33005KT P6SM FEW050=



Latest METAR

898
SAUS70 KWBC 290000 RRJ
MTRBHM
METAR KBHM 282353Z 10004KT 10SM FEW060 SCT120 BKN200 27/16 A3010 RMK AO2
SLP185 T02720161 10289 20239 53000


USA.gov is the U.S. government's official web portal to all federal, state and local government web resources and services.